Time;durP1;ratioP1;P1;durP2;ratioP2;P2;SDS_P1;SDS_P2;PMS_P1;PMS_P2;Temp;Humidity;BMP_temperature;BMP_pressure;BME280_temperature;BME280_humidity;BME280_pressure;Samples;Min_cycle;Max_cycle;Signal;HPM_P1;HPM_P2
2020/12/09 00:01:19;;;;;;;2.30;0.60;;;4.10;94.70;;;;;;5055560;28;20033;-73
2020/12/09 00:03:45;;;;;;;1.63;0.50;;;4.00;94.60;;;;;;5055522;28;20032;-73
2020/12/09 00:06:11;;;;;;;1.47;0.50;;;4.00;94.60;;;;;;5073391;28;20086;-73
2020/12/09 00:08:37;;;;;;;2.27;0.60;;;4.00;94.50;;;;;;5072235;28;20040;-73
2020/12/09 00:11:03;;;;;;;2.13;0.63;;;4.00;94.40;;;;;;5073301;28;20480;-73
2020/12/09 00:13:28;;;;;;;2.20;0.57;;;3.90;94.30;;;;;;5071722;28;20021;-73
2020/12/09 00:15:54;;;;;;;2.13;0.63;;;3.80;94.20;;;;;;5071522;28;20070;-73
2020/12/09 00:18:20;;;;;;;2.07;0.73;;;3.80;94.20;;;;;;5073243;28;20392;-73
2020/12/09 00:20:45;;;;;;;1.73;0.60;;;3.80;94.30;;;;;;5055528;28;20104;-73
2020/12/09 00:23:11;;;;;;;2.37;0.73;;;3.80;94.30;;;;;;5072105;28;20580;-73
2020/12/09 00:25:37;;;;;;;2.30;0.80;;;3.80;94.40;;;;;;5072074;28;20036;-73
2020/12/09 00:28:02;;;;;;;2.30;0.60;;;3.80;94.40;;;;;;5073178;28;20392;-73
2020/12/09 00:30:28;;;;;;;2.00;0.53;;;3.80;94.50;;;;;;5071995;28;20107;-72
2020/12/09 00:32:54;;;;;;;2.03;0.70;;;3.80;94.60;;;;;;5071870;28;20107;-73
2020/12/09 00:35:19;;;;;;;1.20;0.50;;;3.80;94.70;;;;;;5071938;28;20491;-73
2020/12/09 00:37:45;;;;;;;2.20;0.80;;;3.90;94.70;;;;;;5071870;28;20048;-73
2020/12/09 00:40:11;;;;;;;2.27;0.60;;;3.90;94.70;;;;;;5073018;28;20036;-73
2020/12/09 00:42:36;;;;;;;1.97;0.60;;;3.90;94.70;;;;;;5072036;28;20395;-73
2020/12/09 00:45:04;;;;;;;2.10;0.60;;;3.90;94.70;;;;;;5055039;28;20480;-73
2020/12/09 00:47:29;;;;;;;1.80;0.70;;;3.90;94.70;;;;;;5071663;28;20119;-73
2020/12/09 00:50:27;;;;;;;2.30;0.77;;;3.90;94.70;;;;;;5038539;28;20115;-73
2020/12/09 00:53:01;;;;;;;2.63;0.60;;;3.90;94.70;;;;;;5071609;28;20076;-73
2020/12/09 00:55:27;;;;;;;2.40;0.60;;;3.80;94.60;;;;;;5071771;28;20032;-73
2020/12/09 00:57:53;;;;;;;2.00;0.60;;;3.90;94.60;;;;;;5071649;28;20032;-73
2020/12/09 01:00:18;;;;;;;2.80;0.60;;;3.80;94.60;;;;;;5054894;28;20033;-73
2020/12/09 01:02:44;;;;;;;2.40;0.60;;;3.80;94.60;;;;;;5071582;28;20123;-73
2020/12/09 01:05:11;;;;;;;2.43;0.80;;;3.80;94.60;;;;;;5071636;28;20047;-74
2020/12/09 01:07:37;;;;;;;2.37;0.60;;;3.80;94.60;;;;;;5071660;28;20028;-73
2020/12/09 01:10:05;;;;;;;2.47;0.70;;;3.80;94.70;;;;;;5054785;28;20033;-73
2020/12/09 01:12:31;;;;;;;1.60;0.53;;;3.80;94.70;;;;;;5072909;28;20481;-73
2020/12/09 01:14:57;;;;;;;2.57;0.70;;;3.80;94.70;;;;;;5072859;28;20027;-73
2020/12/09 01:17:22;;;;;;;1.70;0.50;;;3.80;94.60;;;;;;5073093;28;20415;-73
2020/12/09 01:19:48;;;;;;;1.70;0.60;;;3.80;94.50;;;;;;5071229;28;20410;-73
2020/12/09 01:22:14;;;;;;;2.87;0.70;;;3.70;94.40;;;;;;5072821;28;20039;-73
2020/12/09 01:24:39;;;;;;;1.83;0.50;;;3.70;94.40;;;;;;5071514;28;20375;-73
2020/12/09 01:27:05;;;;;;;1.27;0.47;;;3.70;94.40;;;;;;5074625;28;20078;-73
2020/12/09 01:29:30;;;;;;;2.23;0.57;;;3.70;94.40;;;;;;5076069;28;20039;-73
2020/12/09 01:32:00;;;;;;;1.63;0.50;;;3.60;94.40;;;;;;5076238;28;20056;-73
2020/12/09 01:34:27;;;;;;;1.57;0.50;;;3.60;94.60;;;;;;5074741;28;20021;-73
2020/12/09 01:36:53;;;;;;;1.83;0.50;;;3.60;94.30;;;;;;5074711;28;20482;-73
2020/12/09 01:39:19;;;;;;;1.63;0.60;;;3.50;94.20;;;;;;5074653;28;20119;-73
2020/12/09 01:41:44;;;;;;;1.73;0.60;;;3.60;94.20;;;;;;5074721;28;20120;-73
2020/12/09 01:44:10;;;;;;;1.83;0.50;;;3.50;94.10;;;;;;5075883;28;20033;-73
2020/12/09 01:46:37;;;;;;;2.43;0.53;;;3.50;94.10;;;;;;5057945;28;20033;-73
2020/12/09 01:49:03;;;;;;;2.00;0.50;;;3.50;94.00;;;;;;5074366;28;20085;-73
2020/12/09 01:51:29;;;;;;;1.70;0.50;;;3.40;93.90;;;;;;5041302;28;20115;-73
2020/12/09 01:53:59;;;;;;;1.27;0.53;;;3.30;93.90;;;;;;5075547;28;20048;-73
2020/12/09 01:56:25;;;;;;;1.53;0.50;;;3.40;93.80;;;;;;5075903;28;20039;-73
2020/12/09 01:58:52;;;;;;;1.10;0.50;;;3.30;93.80;;;;;;5074311;28;20119;-73
2020/12/09 02:01:19;;;;;;;1.23;0.47;;;3.20;93.70;;;;;;5074725;28;20035;-73
2020/12/09 02:03:46;;;;;;;0.97;0.33;;;3.20;93.70;;;;;;5057816;28;20037;-73
2020/12/09 02:06:15;;;;;;;2.10;0.60;;;3.20;93.60;;;;;;5075956;28;20033;-73
2020/12/09 02:08:41;;;;;;;1.43;0.50;;;3.10;93.60;;;;;;5074252;28;20082;-73
2020/12/09 02:11:07;;;;;;;1.37;0.53;;;3.10;93.50;;;;;;5075746;28;20120;-73
2020/12/09 02:13:32;;;;;;;2.00;0.57;;;3.10;93.50;;;;;;5075356;28;20103;-73
2020/12/09 02:16:00;;;;;;;2.27;0.60;;;3.00;93.50;;;;;;5073919;28;20059;-73
2020/12/09 02:18:25;;;;;;;2.03;0.50;;;3.00;93.60;;;;;;5075162;28;20024;-73
2020/12/09 02:20:51;;;;;;;1.93;0.50;;;3.00;93.60;;;;;;5075177;28;20534;-73
2020/12/09 02:23:17;;;;;;;2.83;0.67;;;3.00;93.70;;;;;;5075161;28;20029;-73
2020/12/09 02:25:45;;;;;;;1.83;0.70;;;3.00;93.80;;;;;;5074009;28;20507;-73
2020/12/09 02:28:11;;;;;;;2.23;0.53;;;3.00;93.90;;;;;;5075009;28;20024;-73
2020/12/09 02:30:37;;;;;;;1.27;0.50;;;3.00;94.00;;;;;;5073575;28;20041;-73
2020/12/09 02:33:03;;;;;;;1.47;0.53;;;3.00;94.20;;;;;;5057213;28;20058;-74
2020/12/09 02:35:28;;;;;;;1.93;0.67;;;3.10;94.30;;;;;;5074903;28;20066;-73
2020/12/09 02:37:54;;;;;;;1.03;0.50;;;3.10;94.20;;;;;;5056122;28;20025;-74
2020/12/09 02:40:21;;;;;;;1.80;0.63;;;3.10;94.20;;;;;;5074684;28;20404;-73
2020/12/09 02:42:47;;;;;;;3.57;0.93;;;3.10;94.40;;;;;;5073393;28;20028;-74
2020/12/09 02:45:13;;;;;;;2.63;0.60;;;3.10;94.40;;;;;;5073427;28;20024;-73
2020/12/09 02:47:39;;;;;;;1.27;0.63;;;3.10;94.40;;;;;;5074662;28;20035;-73
2020/12/09 02:50:05;;;;;;;1.90;0.70;;;3.10;94.50;;;;;;5057223;28;20029;-73
2020/12/09 02:52:31;;;;;;;1.90;0.60;;;3.10;94.50;;;;;;5074311;28;20136;-73
2020/12/09 02:54:57;;;;;;;1.23;0.47;;;3.20;94.60;;;;;;5074624;28;20060;-73
2020/12/09 02:57:23;;;;;;;1.47;0.50;;;3.20;94.60;;;;;;5074670;28;20040;-72
2020/12/09 02:59:48;;;;;;;1.00;0.40;;;3.20;94.70;;;;;;5075088;28;20025;-73
2020/12/09 03:02:14;;;;;;;2.33;0.60;;;3.20;94.70;;;;;;5074863;28;20028;-73
2020/12/09 03:04:40;;;;;;;1.30;0.40;;;3.20;94.70;;;;;;5056432;28;20142;-73
2020/12/09 03:07:05;;;;;;;1.67;0.60;;;3.20;94.70;;;;;;5073280;28;20020;-72
2020/12/09 03:09:31;;;;;;;1.50;0.53;;;3.20;94.80;;;;;;5072789;28;20396;-73
2020/12/09 03:11:56;;;;;;;1.50;0.50;;;3.20;94.80;;;;;;5056472;28;20488;-73
2020/12/09 03:14:22;;;;;;;1.60;0.50;;;3.30;94.90;;;;;;5074197;28;20108;-73
2020/12/09 03:16:48;;;;;;;1.53;0.47;;;3.30;95.00;;;;;;5039755;28;20554;-72
2020/12/09 03:19:13;;;;;;;2.43;0.70;;;3.30;95.30;;;;;;5072807;28;20031;-73
2020/12/09 03:21:42;;;;;;;1.83;0.50;;;3.40;95.00;;;;;;5072730;28;20111;-73
2020/12/09 03:24:11;;;;;;;1.87;0.50;;;3.30;95.00;;;;;;5056484;28;20024;-73
2020/12/09 03:26:37;;;;;;;2.10;0.60;;;3.40;95.10;;;;;;5073928;28;20032;-73
2020/12/09 03:29:03;;;;;;;2.27;0.50;;;3.40;95.20;;;;;;5073695;28;20020;-73
2020/12/09 03:31:29;;;;;;;1.87;0.70;;;3.40;95.30;;;;;;5072765;28;20028;-73
2020/12/09 03:33:55;;;;;;;2.23;0.60;;;3.50;95.30;;;;;;5056043;28;20020;-73
2020/12/09 03:36:21;;;;;;;2.27;0.70;;;3.50;95.40;;;;;;5072747;28;20035;-73
2020/12/09 03:38:46;;;;;;;1.80;0.60;;;3.50;95.40;;;;;;5072480;28;20499;-73
2020/12/09 03:41:12;;;;;;;1.90;0.53;;;3.60;95.40;;;;;;5039243;28;20476;-73
2020/12/09 03:43:37;;;;;;;1.37;0.43;;;3.60;95.40;;;;;;5055714;28;20107;-74
2020/12/09 03:46:03;;;;;;;1.83;0.50;;;3.60;95.50;;;;;;5073619;28;20468;-72
2020/12/09 03:48:29;;;;;;;3.07;0.77;;;3.70;95.50;;;;;;5073456;28;20045;-72
2020/12/09 03:50:55;;;;;;;3.57;0.83;;;3.70;95.60;;;;;;5072209;28;20073;-73
2020/12/09 03:53:21;;;;;;;3.83;0.80;;;3.70;95.60;;;;;;5073288;28;20067;-73
2020/12/09 03:55:47;;;;;;;2.97;0.80;;;3.80;95.60;;;;;;5073519;28;20021;-72
2020/12/09 03:58:13;;;;;;;4.83;1.50;;;3.80;95.60;;;;;;5055506;28;20047;-73
2020/12/09 04:00:39;;;;;;;4.37;0.93;;;3.90;95.60;;;;;;5073539;28;20586;-73
2020/12/09 04:03:04;;;;;;;3.93;1.20;;;3.90;95.60;;;;;;5072163;28;20032;-73
2020/12/09 04:05:30;;;;;;;3.87;1.07;;;3.90;95.60;;;;;;5055632;28;20030;-73
2020/12/09 04:07:56;;;;;;;4.10;1.03;;;3.90;95.60;;;;;;5073419;28;20052;-73
2020/12/09 04:10:21;;;;;;;4.70;0.93;;;3.90;95.60;;;;;;5072280;28;20115;-73
2020/12/09 04:12:47;;;;;;;3.77;0.90;;;4.00;95.60;;;;;;5071996;28;20021;-73
2020/12/09 04:15:13;;;;;;;3.97;1.30;;;4.00;95.60;;;;;;5055339;28;20470;-73
2020/12/09 04:17:39;;;;;;;4.00;1.03;;;4.00;95.60;;;;;;5072123;28;20071;-73
2020/12/09 04:20:06;;;;;;;5.10;1.07;;;4.00;95.60;;;;;;5072155;28;20376;-73
2020/12/09 04:22:32;;;;;;;3.87;0.80;;;4.00;95.50;;;;;;5073166;28;20032;-73
2020/12/09 04:24:58;;;;;;;3.80;1.00;;;4.00;95.60;;;;;;5072058;28;20032;-73
2020/12/09 04:27:24;;;;;;;4.73;1.27;;;4.00;95.60;;;;;;5073023;28;20032;-72
2020/12/09 04:29:49;;;;;;;4.37;1.00;;;4.10;95.60;;;;;;5072871;28;20083;-73
2020/12/09 04:32:15;;;;;;;4.90;1.07;;;4.20;95.60;;;;;;5072009;28;20017;-73
2020/12/09 04:34:40;;;;;;;3.97;0.87;;;4.10;95.50;;;;;;5055458;28;20444;-73
2020/12/09 04:37:08;;;;;;;4.03;1.13;;;4.10;95.50;;;;;;5072958;28;20131;-72
2020/12/09 04:39:34;;;;;;;6.83;1.30;;;4.10;95.50;;;;;;5073030;28;20208;-73
2020/12/09 04:42:00;;;;;;;5.80;1.30;;;4.10;95.50;;;;;;5071547;28;20484;-73
2020/12/09 04:44:26;;;;;;;4.83;1.53;;;4.10;95.40;;;;;;5073143;28;20104;-73
2020/12/09 04:46:53;;;;;;;4.73;1.03;;;4.20;95.40;;;;;;5071702;28;20031;-74
2020/12/09 04:49:22;;;;;;;4.90;1.00;;;4.20;95.40;;;;;;5071730;28;20377;-72
2020/12/09 04:52:06;;;;;;;5.37;1.40;;;4.10;95.30;;;;;;5071669;28;20031;-73
2020/12/09 04:54:40;;;;;;;6.13;1.70;;;4.10;95.30;;;;;;5071672;28;20110;-73
2020/12/09 04:57:13;;;;;;;;;;;4.10;95.30;;;;;;5073658;28;20423;-73
2020/12/09 04:59:41;;;;;;;4.40;1.33;;;4.00;95.30;;;;;;5071864;28;19908;-73
2020/12/09 05:02:12;;;;;;;6.77;1.47;;;4.10;95.30;;;;;;5068382;28;20033;-72
2020/12/09 05:04:39;;;;;;;5.13;1.10;;;4.10;95.40;;;;;;5073886;28;20031;-72
2020/12/09 05:07:09;;;;;;;4.77;1.40;;;4.10;95.30;;;;;;5075326;28;20028;-73
2020/12/09 05:09:45;;;;;;;4.47;1.10;;;4.10;95.30;;;;;;5076571;28;20016;-73
2020/12/09 05:12:17;;;;;;;4.23;1.00;;;4.10;95.30;;;;;;5076397;28;20016;-73
2020/12/09 05:14:48;;;;;;;4.70;1.13;;;4.10;95.40;;;;;;5076128;28;20025;-72
2020/12/09 05:17:18;;;;;;;5.37;1.23;;;4.10;95.40;;;;;;5076406;28;20028;-73
2020/12/09 05:19:48;;;;;;;3.47;0.73;;;4.10;95.30;;;;;;5074985;28;20098;-72
2020/12/09 05:22:20;;;;;;;4.27;1.17;;;4.10;95.30;;;;;;5074907;28;20055;-72
2020/12/09 05:24:46;;;;;;;4.93;1.10;;;4.10;95.30;;;;;;5074851;28;20021;-72
2020/12/09 05:27:15;;;;;;;3.63;1.10;;;4.10;95.20;;;;;;5071298;28;20025;-72
2020/12/09 05:29:46;;;;;;;4.73;1.07;;;4.10;95.20;;;;;;5054107;28;20017;-72
2020/12/09 05:32:12;;;;;;;5.80;1.27;;;4.10;95.10;;;;;;5054117;28;20021;-72
2020/12/09 05:34:37;;;;;;;4.10;1.13;;;4.00;95.30;;;;;;5053968;28;20090;-72
2020/12/09 05:37:08;;;;;;;4.10;1.43;;;4.00;95.00;;;;;;5054585;28;20409;-72
2020/12/09 05:39:48;;;;;;;7.07;1.97;;;3.90;94.90;;;;;;5056189;28;20060;-73
2020/12/09 05:42:16;;;;;;;5.53;1.63;;;4.00;94.90;;;;;;5053688;28;20025;-72
2020/12/09 05:44:42;;;;;;;5.33;1.40;;;3.90;94.90;;;;;;5054517;28;20032;-72
2020/12/09 05:47:08;;;;;;;5.40;1.40;;;3.90;95.00;;;;;;5053657;28;20044;-73
2020/12/09 05:49:39;;;;;;;4.93;1.30;;;3.90;95.00;;;;;;5055563;28;20083;-72
2020/12/09 05:52:10;;;;;;;4.97;1.50;;;3.90;95.10;;;;;;5053637;28;20507;-72
2020/12/09 05:54:38;;;;;;;5.27;1.17;;;4.00;95.10;;;;;;5055691;28;20048;-72
2020/12/09 05:57:05;;;;;;;4.67;1.17;;;4.00;95.10;;;;;;5054104;28;20028;-72
2020/12/09 05:59:33;;;;;;;4.43;1.17;;;4.00;95.10;;;;;;5055685;28;20029;-72
2020/12/09 06:02:19;;;;;;;5.53;1.47;;;4.00;95.10;;;;;;5053898;28;20480;-72
2020/12/09 06:04:55;;;;;;;5.67;1.20;;;4.00;95.10;;;;;;5055508;28;20032;-73
2020/12/09 06:07:22;;;;;;;4.87;1.27;;;4.00;95.10;;;;;;5054147;28;20079;-72
2020/12/09 06:10:07;;;;;;;6.10;1.73;;;4.10;95.10;;;;;;5053974;28;20052;-72
2020/12/09 06:12:51;;;;;;;5.60;1.77;;;4.00;95.10;;;;;;5052917;28;20028;-73
2020/12/09 06:15:19;;;;;;;6.15;1.45;;;4.00;95.00;;;;;;5055353;28;20021;-73
2020/12/09 06:17:45;;;;;;;4.53;1.50;;;4.00;95.10;;;;;;5055080;28;20107;-72
2020/12/09 06:20:10;;;;;;;7.10;1.60;;;4.00;95.10;;;;;;5053716;28;20128;-73
2020/12/09 06:22:36;;;;;;;6.10;1.33;;;4.10;95.10;;;;;;5053726;28;20021;-73
2020/12/09 06:25:06;;;;;;;4.67;1.37;;;4.10;95.10;;;;;;5037268;28;20036;-72
2020/12/09 06:27:36;;;;;;;7.93;1.80;;;4.00;95.00;;;;;;5055116;28;20025;-82
2020/12/09 06:30:06;;;;;;;5.60;1.60;;;4.00;95.00;;;;;;5055175;28;20033;-81
2020/12/09 06:32:47;;;;;;;9.57;1.70;;;4.00;94.90;;;;;;5055384;28;20105;-81
2020/12/09 06:35:17;;;;;;;7.80;1.83;;;3.90;94.90;;;;;;5053764;28;20036;-81
2020/12/09 06:38:09;;;;;;;6.27;1.90;;;3.90;94.90;;;;;;5055503;28;20071;-83
2020/12/09 06:40:39;;;;;;;4.73;1.20;;;3.90;94.90;;;;;;5053599;28;20123;-81
2020/12/09 06:43:09;;;;;;;5.20;1.30;;;3.90;94.90;;;;;;5053653;28;20133;-82
2020/12/09 06:45:45;;;;;;;6.20;1.27;;;3.90;94.90;;;;;;5054823;28;20556;-81
2020/12/09 06:48:12;;;;;;;5.83;1.20;;;3.80;95.00;;;;;;5054990;28;20104;-82
2020/12/09 06:50:38;;;;;;;5.57;1.30;;;3.80;95.00;;;;;;5036873;28;20036;-81
2020/12/09 06:53:20;;;;;;;5.60;1.47;;;3.80;95.00;;;;;;5053157;28;20053;-81
2020/12/09 06:55:46;;;;;;;4.67;1.20;;;3.90;95.10;;;;;;5053940;28;20074;-81
2020/12/09 06:58:26;;;;;;;4.77;1.10;;;3.90;95.00;;;;;;5037094;28;20028;-82
2020/12/09 07:01:08;;;;;;;7.07;1.53;;;3.90;95.00;;;;;;5054863;28;20029;-81
2020/12/09 07:03:37;;;;;;;6.97;1.80;;;3.80;94.90;;;;;;5054302;28;20020;-82
2020/12/09 07:06:29;;;;;;;5.80;1.27;;;3.80;94.90;;;;;;5052984;28;20029;-83
2020/12/09 07:08:54;;;;;;;6.10;1.80;;;3.80;94.90;;;;;;5051745;28;20036;-81
2020/12/09 07:11:20;;;;;;;6.73;1.47;;;3.80;94.90;;;;;;5054353;28;20389;-81
2020/12/09 07:13:45;;;;;;;5.97;1.30;;;3.80;95.00;;;;;;5052776;28;20086;-81
2020/12/09 07:16:12;;;;;;;4.90;1.40;;;3.70;95.00;;;;;;5054067;28;20029;-82
2020/12/09 07:18:38;;;;;;;7.23;1.47;;;3.70;95.00;;;;;;5052507;28;20606;-72
2020/12/09 07:21:08;;;;;;;5.70;1.60;;;3.80;95.00;;;;;;5053831;28;20108;-72
2020/12/09 07:23:34;;;;;;;5.87;1.53;;;3.70;94.90;;;;;;5035943;28;20017;-72
2020/12/09 07:26:00;;;;;;;4.80;1.40;;;3.70;94.80;;;;;;5053918;28;20398;-72
2020/12/09 07:28:32;;;;;;;4.83;1.37;;;3.60;94.70;;;;;;5035865;28;20025;-73
2020/12/09 07:31:09;;;;;;;5.23;1.20;;;3.60;94.70;;;;;;5036630;28;20484;-73
2020/12/09 07:33:35;;;;;;;4.47;1.10;;;3.40;94.80;;;;;;5052350;28;20019;-73
2020/12/09 07:36:06;;;;;;;4.70;1.17;;;3.40;94.60;;;;;;5035920;28;20108;-73
2020/12/09 07:38:31;;;;;;;2.83;1.00;;;3.30;94.40;;;;;;5053779;28;20021;-73
2020/12/09 07:41:01;;;;;;;3.10;0.83;;;3.20;94.40;;;;;;5053495;28;20025;-73
2020/12/09 07:43:27;;;;;;;5.37;1.13;;;3.10;94.40;;;;;;5053577;28;20357;-73
2020/12/09 07:46:00;;;;;;;4.00;1.00;;;3.00;94.60;;;;;;5052429;28;20441;-73
2020/12/09 07:48:29;;;;;;;4.93;1.13;;;2.90;94.30;;;;;;5053742;28;20025;-73
2020/12/09 07:50:55;;;;;;;4.70;1.03;;;2.80;94.20;;;;;;5053448;28;20129;-73
2020/12/09 07:53:22;;;;;;;4.67;1.10;;;2.70;94.20;;;;;;5052178;28;20494;-73
2020/12/09 07:55:47;;;;;;;3.33;0.77;;;2.60;94.20;;;;;;5035459;28;20025;-73
2020/12/09 07:58:16;;;;;;;4.73;1.20;;;2.50;94.30;;;;;;5053549;28;20419;-72
2020/12/09 08:00:47;;;;;;;3.60;1.00;;;2.50;94.40;;;;;;5052196;28;20021;-72
2020/12/09 08:03:23;;;;;;;4.50;1.20;;;2.40;94.40;;;;;;5052104;28;20021;-72
2020/12/09 08:05:50;;;;;;;3.37;0.90;;;2.40;94.40;;;;;;5035444;28;20110;-72
2020/12/09 08:08:20;;;;;;;4.60;0.80;;;2.40;94.50;;;;;;5053095;28;20029;-72
2020/12/09 08:10:46;;;;;;;5.40;0.93;;;2.40;94.50;;;;;;5053094;28;20025;-72
2020/12/09 08:13:20;;;;;;;3.23;1.07;;;2.40;94.50;;;;;;5053230;28;20021;-72
2020/12/09 08:15:57;;;;;;;;;;;2.40;94.60;;;;;;5053629;28;20021;-72
2020/12/09 08:18:24;;;;;;;4.53;1.17;;;2.30;94.60;;;;;;5051910;28;19909;-72
2020/12/09 08:20:52;;;;;;;3.33;0.73;;;2.30;94.50;;;;;;5051858;28;20020;-73
2020/12/09 08:23:18;;;;;;;5.57;1.07;;;2.30;94.60;;;;;;5053099;28;20017;-73
2020/12/09 08:25:53;;;;;;;4.33;0.90;;;2.30;94.60;;;;;;5051909;28;20056;-72
2020/12/09 08:28:24;;;;;;;4.37;0.90;;;2.30;94.50;;;;;;5035444;28;20029;-73
2020/12/09 08:30:50;;;;;;;2.50;0.70;;;2.30;94.60;;;;;;5052831;28;20025;-73
2020/12/09 08:33:19;;;;;;;4.40;1.10;;;2.30;94.60;;;;;;5051738;28;20021;-73
2020/12/09 08:35:46;;;;;;;6.03;1.43;;;2.30;94.60;;;;;;5053033;28;20017;-73
2020/12/09 08:38:27;;;;;;;4.67;1.20;;;2.30;94.60;;;;;;5055889;28;20037;-73
2020/12/09 08:41:02;;;;;;;3.70;1.03;;;2.30;94.60;;;;;;5055900;28;20020;-73
2020/12/09 08:43:32;;;;;;;3.97;1.07;;;2.30;94.60;;;;;;5056576;28;20021;-73
2020/12/09 08:45:58;;;;;;;4.00;0.93;;;2.30;94.60;;;;;;5055768;28;20445;-73
2020/12/09 08:48:24;;;;;;;4.23;1.17;;;2.30;94.60;;;;;;5055811;28;20029;-73
2020/12/09 08:50:51;;;;;;;4.13;0.93;;;2.30;94.60;;;;;;5055838;28;20029;-73
2020/12/09 08:53:19;;;;;;;4.47;1.20;;;2.30;94.60;;;;;;5055421;28;20049;-72
2020/12/09 08:55:45;;;;;;;3.57;1.00;;;2.30;94.60;;;;;;5039027;28;20025;-72
2020/12/09 08:58:12;;;;;;;5.00;1.27;;;2.30;94.70;;;;;;5063646;28;20021;-72
2020/12/09 09:00:39;;;;;;;4.87;1.13;;;2.30;94.60;;;;;;5056214;28;20036;-72
2020/12/09 09:03:14;;;;;;;3.47;0.80;;;2.20;94.60;;;;;;5075203;28;20545;-72
2020/12/09 09:05:40;;;;;;;4.83;1.17;;;2.20;94.50;;;;;;5052869;28;20029;-72
2020/12/09 09:08:08;;;;;;;4.20;1.03;;;2.10;94.60;;;;;;5060032;28;20024;-73
2020/12/09 09:10:34;;;;;;;5.00;1.20;;;2.10;94.60;;;;;;5076698;28;20024;-73
2020/12/09 09:12:59;;;;;;;4.93;1.10;;;2.10;94.60;;;;;;5052174;28;20040;-72
2020/12/09 09:15:25;;;;;;;4.57;1.07;;;2.10;94.70;;;;;;5075067;28;20083;-72
2020/12/09 09:17:51;;;;;;;4.57;1.50;;;2.10;94.80;;;;;;5071694;28;20025;-72
2020/12/09 09:20:17;;;;;;;3.97;1.20;;;2.20;94.80;;;;;;5066108;28;20026;-72
2020/12/09 09:22:43;;;;;;;4.00;1.17;;;2.20;94.80;;;;;;5057575;28;20049;-72
2020/12/09 09:25:09;;;;;;;3.70;1.00;;;2.10;94.80;;;;;;5055366;28;20405;-72
2020/12/09 09:27:35;;;;;;;3.73;0.90;;;2.20;94.90;;;;;;5055272;28;20071;-73
2020/12/09 09:30:00;;;;;;;2.63;0.93;;;2.20;94.90;;;;;;5054976;28;20120;-73
2020/12/09 09:32:26;;;;;;;4.87;1.10;;;2.20;94.90;;;;;;5057310;28;20017;-72
2020/12/09 09:34:53;;;;;;;3.93;1.23;;;2.30;94.90;;;;;;5067489;28;20048;-73
2020/12/09 09:37:21;;;;;;;3.10;0.73;;;2.30;94.90;;;;;;5051150;28;20021;-73
2020/12/09 09:39:48;;;;;;;2.90;0.77;;;2.30;94.90;;;;;;5063166;28;20040;-73
2020/12/09 09:42:13;;;;;;;4.67;1.00;;;2.30;94.90;;;;;;5043840;28;20078;-73
2020/12/09 09:44:39;;;;;;;3.80;1.00;;;2.30;94.90;;;;;;5063362;28;20418;-72
2020/12/09 09:47:04;;;;;;;5.43;1.10;;;2.30;94.80;;;;;;5069603;28;20447;-73
2020/12/09 09:49:30;;;;;;;3.53;0.83;;;2.30;94.80;;;;;;5057726;28;20024;-73
2020/12/09 09:51:56;;;;;;;3.93;1.00;;;2.30;94.80;;;;;;5073670;28;20496;-73
2020/12/09 09:54:22;;;;;;;2.33;0.80;;;2.30;94.80;;;;;;5074119;28;20104;-73
2020/12/09 09:56:49;;;;;;;4.17;1.20;;;2.30;94.80;;;;;;5075284;28;20028;-73
2020/12/09 09:59:15;;;;;;;3.57;1.10;;;2.30;94.80;;;;;;5058069;28;20081;-73
2020/12/09 10:01:41;;;;;;;5.80;0.90;;;2.30;94.90;;;;;;5057708;28;20027;-73
2020/12/09 10:04:08;;;;;;;4.20;1.17;;;2.40;94.90;;;;;;5074267;28;20447;-73
2020/12/09 10:06:35;;;;;;;5.37;1.23;;;2.40;94.90;;;;;;5074390;28;20025;-73
2020/12/09 10:09:01;;;;;;;4.73;0.93;;;2.40;94.90;;;;;;5075383;28;20032;-73
2020/12/09 10:11:26;;;;;;;5.27;1.40;;;2.40;94.80;;;;;;5075651;28;20021;-73
2020/12/09 10:13:52;;;;;;;4.23;1.03;;;2.30;94.80;;;;;;5075498;28;20419;-73
2020/12/09 10:16:27;;;;;;;4.70;1.10;;;2.30;94.80;;;;;;5075371;28;20046;-73
2020/12/09 10:18:54;;;;;;;5.00;1.47;;;2.30;94.90;;;;;;5074067;28;20070;-73
2020/12/09 10:21:29;;;;;;;5.13;1.23;;;2.30;95.20;;;;;;5075460;28;20479;-73
2020/12/09 10:23:56;;;;;;;2.77;0.80;;;2.30;94.90;;;;;;5073794;28;20021;-73
2020/12/09 10:26:30;;;;;;;4.57;1.00;;;2.30;94.80;;;;;;5057258;28;20024;-73
2020/12/09 10:29:00;;;;;;;4.82;1.02;;;2.30;94.90;;;;;;5073730;28;20055;-73
2020/12/09 10:31:32;;;;;;;5.57;0.87;;;2.30;94.90;;;;;;5057520;28;20032;-72
2020/12/09 10:33:57;;;;;;;5.67;1.27;;;2.30;94.80;;;;;;5075031;28;20066;-73
2020/12/09 10:36:23;;;;;;;4.63;1.13;;;2.30;94.80;;;;;;5058041;28;20033;-78
2020/12/09 10:38:50;;;;;;;2.67;0.80;;;2.30;94.90;;;;;;5073749;28;20468;-74
2020/12/09 10:41:18;;;;;;;5.47;1.27;;;2.30;94.90;;;;;;5067188;28;20427;-74
2020/12/09 10:43:44;;;;;;;4.03;1.03;;;2.30;94.90;;;;;;5037067;28;20056;-75
2020/12/09 10:46:09;;;;;;;4.83;1.00;;;2.30;94.90;;;;;;5053692;28;20095;-75
2020/12/09 10:48:35;;;;;;;3.80;0.97;;;2.40;94.90;;;;;;5031769;28;20029;-74
2020/12/09 10:51:04;;;;;;;6.40;1.40;;;2.30;94.90;;;;;;5042181;28;20057;-74
2020/12/09 10:53:29;;;;;;;4.77;1.00;;;2.40;94.90;;;;;;5064049;28;20444;-75
2020/12/09 10:55:59;;;;;;;5.33;1.10;;;2.40;94.90;;;;;;5047851;28;20060;-75
2020/12/09 10:58:26;;;;;;;6.07;1.40;;;2.40;94.80;;;;;;5042600;28;20112;-73
2020/12/09 11:00:51;;;;;;;3.67;1.10;;;2.30;94.70;;;;;;5050103;28;20033;-73
2020/12/09 11:03:17;;;;;;;3.83;0.83;;;2.30;94.80;;;;;;5066694;28;20541;-74
2020/12/09 11:05:43;;;;;;;4.30;1.33;;;2.30;94.80;;;;;;5053204;28;20082;-74
2020/12/09 11:08:09;;;;;;;4.90;1.20;;;2.30;94.80;;;;;;5021385;28;20039;-74
2020/12/09 11:10:35;;;;;;;2.77;0.80;;;2.30;94.90;;;;;;5035774;28;20029;-74
2020/12/09 11:13:00;;;;;;;3.93;1.10;;;2.30;94.90;;;;;;5052714;28;20447;-75
2020/12/09 11:15:26;;;;;;;4.03;1.03;;;2.40;94.90;;;;;;5036509;28;20025;-75
2020/12/09 11:17:52;;;;;;;4.70;1.13;;;2.30;94.80;;;;;;5059432;28;20020;-76
2020/12/09 11:20:18;;;;;;;5.07;1.13;;;2.30;94.80;;;;;;5039580;28;20111;-75
2020/12/09 11:22:43;;;;;;;4.03;0.90;;;2.30;94.80;;;;;;5056037;28;20078;-76
2020/12/09 11:25:09;;;;;;;3.93;1.03;;;2.30;94.80;;;;;;5072917;28;20024;-75
2020/12/09 11:27:35;;;;;;;4.00;0.83;;;2.40;94.80;;;;;;5056128;28;20488;-76
2020/12/09 11:30:01;;;;;;;3.23;1.00;;;2.30;94.80;;;;;;5055771;28;20039;-76
2020/12/09 11:32:34;;;;;;;4.17;0.90;;;2.30;94.80;;;;;;5056214;28;20047;-76
2020/12/09 11:35:00;;;;;;;4.15;0.90;;;2.30;94.80;;;;;;5073581;28;20021;-75
2020/12/09 11:37:26;;;;;;;3.17;0.80;;;2.40;94.90;;;;;;5055918;28;20039;-76
2020/12/09 11:39:53;;;;;;;2.97;0.70;;;2.40;94.90;;;;;;5039826;28;20415;-87
2020/12/09 11:42:18;;;;;;;3.40;0.60;;;2.40;94.90;;;;;;5073296;28;20085;-76
2020/12/09 11:44:44;;;;;;;4.07;0.67;;;2.50;94.90;;;;;;5072491;28;20539;-76
2020/12/09 11:47:10;;;;;;;4.33;0.87;;;2.50;94.80;;;;;;5039375;28;20039;-76
2020/12/09 11:49:35;;;;;;;5.20;0.93;;;2.50;94.80;;;;;;5039303;28;20360;-76
2020/12/09 11:52:01;;;;;;;2.97;0.70;;;2.50;94.80;;;;;;5033172;28;20175;-76
2020/12/09 11:54:26;;;;;;;3.00;0.70;;;2.50;94.80;;;;;;5051801;28;20025;-75
2020/12/09 11:56:52;;;;;;;3.23;0.70;;;2.50;94.80;;;;;;5019029;28;20544;-75
2020/12/09 11:59:18;;;;;;;2.87;0.63;;;2.50;94.90;;;;;;5019273;28;20052;-76
2020/12/09 12:01:44;;;;;;;2.17;0.70;;;2.50;94.90;;;;;;5053078;28;20538;-76
2020/12/09 12:04:10;;;;;;;3.80;0.60;;;2.60;95.00;;;;;;5038924;28;20020;-76
2020/12/09 12:06:36;;;;;;;2.70;0.50;;;2.70;95.00;;;;;;5039005;28;20024;-76
2020/12/09 12:09:02;;;;;;;3.30;0.80;;;2.60;94.90;;;;;;5071947;28;20078;-76
2020/12/09 12:11:28;;;;;;;2.70;0.70;;;2.70;94.90;;;;;;5072272;28;20526;-76
2020/12/09 12:13:54;;;;;;;5.73;1.00;;;2.70;94.90;;;;;;5071920;28;20025;-76
2020/12/09 12:16:23;;;;;;;2.90;0.70;;;2.60;94.90;;;;;;5070827;28;20044;-76
2020/12/09 12:18:50;;;;;;;3.60;0.87;;;2.70;94.90;;;;;;5072214;28;20078;-76
2020/12/09 12:21:18;;;;;;;4.07;0.77;;;2.70;94.90;;;;;;5070677;28;20048;-76
2020/12/09 12:23:45;;;;;;;2.87;0.80;;;2.70;94.90;;;;;;5064440;28;20017;-76
2020/12/09 12:26:15;;;;;;;3.67;0.73;;;2.80;94.90;;;;;;5029118;28;20021;-76
2020/12/09 12:28:41;;;;;;;2.80;0.70;;;2.80;94.90;;;;;;5067497;28;20017;-76
2020/12/09 12:31:12;;;;;;;4.40;0.80;;;2.80;94.90;;;;;;5054924;28;20040;-77
2020/12/09 12:33:38;;;;;;;5.47;0.97;;;2.80;94.90;;;;;;5073079;28;20013;-76
2020/12/09 12:36:05;;;;;;;5.70;1.10;;;2.90;95.00;;;;;;5053877;28;20104;-76
2020/12/09 12:38:32;;;;;;;4.93;0.97;;;2.90;94.90;;;;;;5073332;28;20043;-77
2020/12/09 12:40:57;;;;;;;6.10;1.07;;;2.90;95.00;;;;;;5068736;28;20120;-76
2020/12/09 12:43:23;;;;;;;5.83;1.20;;;3.00;95.10;;;;;;5019124;28;20397;-76
2020/12/09 12:45:49;;;;;;;3.83;0.73;;;3.00;95.10;;;;;;5057095;28;20042;-76
2020/12/09 12:48:14;;;;;;;4.63;1.13;;;3.00;95.00;;;;;;5071668;28;20465;-76
2020/12/09 12:50:40;;;;;;;5.93;0.70;;;3.10;95.10;;;;;;5071165;28;20051;-76
2020/12/09 12:53:06;;;;;;;3.77;0.93;;;3.10;95.00;;;;;;5054929;28;20365;-74
2020/12/09 12:55:31;;;;;;;3.43;0.80;;;3.10;95.00;;;;;;5071456;28;20023;-75
2020/12/09 12:57:57;;;;;;;6.03;1.20;;;3.10;95.00;;;;;;5071780;28;20094;-76
2020/12/09 13:00:22;;;;;;;4.87;1.03;;;3.10;95.00;;;;;;5072211;28;20036;-75